Time;durP1;ratioP1;P1;durP2;ratioP2;P2;SDS_P1;SDS_P2;PMS_P1;PMS_P2;Temp;Humidity;BMP_temperature;BMP_pressure;BME280_temperature;BME280_humidity;BME280_pressure;Samples;Min_cycle;Max_cycle;Signal;HPM_P1;HPM_P2
2022/12/25 00:03:55;;;;;;;28.33;7.03;;;;;;;11.74;79.25;100486.38;10380899;28;20539;-70
2022/12/25 00:08:57;;;;;;;21.52;6.97;;;;;;;11.84;78.51;100476.19;10379422;28;20065;-71
2022/12/25 00:13:58;;;;;;;25.30;7.13;;;;;;;11.99;78.16;100452.84;10394018;28;20061;-69
2022/12/25 00:19:00;;;;;;;27.40;8.35;;;;;;;12.09;77.76;100450.72;10406812;28;20038;-71
2022/12/25 00:24:02;;;;;;;26.73;8.85;;;;;;;12.16;77.97;100445.44;10401445;28;20050;-72
2022/12/25 00:29:03;;;;;;;31.02;9.02;;;;;;;12.20;77.69;100445.91;10410339;28;20092;-68
2022/12/25 00:34:05;;;;;;;22.15;7.82;;;;;;;12.21;77.31;100431.41;10383381;28;20107;-68
2022/12/25 00:39:06;;;;;;;27.30;8.93;;;;;;;12.19;77.46;100438.84;10402346;28;20042;-71
2022/12/25 00:44:10;;;;;;;17.50;7.35;;;;;;;12.15;77.68;100434.84;10406288;28;20049;-68
2022/12/25 00:49:12;;;;;;;24.58;8.88;;;;;;;12.07;77.44;100452.75;10391643;28;20060;-69
2022/12/25 00:54:13;;;;;;;21.27;8.07;;;;;;;12.10;77.55;100460.50;10407162;28;20632;-71
2022/12/25 00:59:15;;;;;;;28.80;8.48;;;;;;;12.14;77.90;100458.25;10413651;28;20050;-69
2022/12/25 01:04:16;;;;;;;30.58;8.05;;;;;;;12.05;77.66;100446.72;10391099;28;20615;-67
2022/12/25 01:14:37;;;;;;;25.73;8.77;;;;;;;12.13;77.71;100448.50;10407448;28;20393;-67
2022/12/25 01:19:39;;;;;;;30.67;8.65;;;;;;;12.14;77.45;100458.25;10415632;28;20053;-67
2022/12/25 01:24:44;;;;;;;31.95;7.68;;;;;;;12.12;77.64;100454.91;10417882;28;20046;-68
2022/12/25 01:29:45;;;;;;;30.13;7.03;;;;;;;12.19;77.55;100463.09;10404636;28;20057;-69
2022/12/25 01:34:47;;;;;;;22.20;7.82;;;;;;;12.18;77.60;100469.50;10418615;28;20096;-67
2022/12/25 01:39:56;;;;;;;26.98;7.57;;;;;;;12.21;77.12;100469.16;10406330;28;20061;-69
2022/12/25 01:45:43;;;;;;;24.85;6.82;;;;;;;12.22;77.43;100473.50;10407748;28;20046;-67
2022/12/25 01:50:48;;;;;;;26.63;6.95;;;;;;;12.22;77.49;100468.97;10378321;28;20053;-69
2022/12/25 01:55:54;;;;;;;28.88;6.82;;;;;;;12.23;77.53;100464.41;10382492;28;20073;-69
2022/12/25 02:00:55;;;;;;;23.45;7.53;;;;;;;12.19;77.21;100465.81;10396588;28;20041;-62
2022/12/25 02:05:58;;;;;;;28.27;7.93;;;;;;;12.17;77.38;100463.28;10434846;28;20054;-64
2022/12/25 02:10:59;;;;;;;28.10;7.65;;;;;;;12.21;77.34;100461.91;10440419;28;20053;-64
2022/12/25 02:16:12;;;;;;;28.85;7.15;;;;;;;12.24;77.53;100464.22;10442317;28;20053;-66
2022/12/25 02:21:47;;;;;;;26.38;8.20;;;;;;;12.24;77.45;100461.53;10415604;28;20046;-66
2022/12/25 02:26:58;;;;;;;29.50;9.30;;;;;;;12.23;77.57;100448.25;10434159;28;20049;-66
2022/12/25 02:32:30;;;;;;;24.40;8.52;;;;;;;12.22;77.58;100446.56;10431278;28;20046;-64
2022/12/25 02:37:40;;;;;;;26.35;9.07;;;;;;;12.19;77.30;100452.31;10436735;28;20045;-62
2022/12/25 03:31:32;;;;;;;33.40;9.63;;;;;;;12.19;77.67;100449.63;10432866;28;20061;-64
2022/12/25 03:37:31;;;;;;;24.55;9.45;;;;;;;12.25;77.28;100448.88;10427397;28;20034;-66
2022/12/25 04:36:08;;;;;;;26.23;8.80;;;;;;;12.36;76.72;100394.53;10415240;28;20072;-64
2022/12/25 04:41:11;;;;;;;18.80;7.93;;;;;;;12.32;76.69;100401.28;10436127;28;20080;-65
2022/12/25 04:46:13;;;;;;;22.27;8.65;;;;;;;12.28;76.76;100398.16;10428844;28;20079;-67
2022/12/25 04:51:22;;;;;;;28.67;8.77;;;;;;;12.21;77.23;100399.91;10432470;28;20030;-66
2022/12/25 04:56:23;;;;;;;31.17;9.07;;;;;;;12.20;76.85;100395.53;10429174;28;20046;-66
2022/12/25 05:01:25;;;;;;;17.13;8.93;;;;;;;12.20;77.06;100400.91;10422639;28;20078;-65
2022/12/25 05:06:26;;;;;;;22.95;8.60;;;;;;;12.18;76.82;100388.66;10430075;28;20118;-65
2022/12/25 05:11:28;;;;;;;29.48;8.40;;;;;;;12.19;77.03;100398.44;10410176;28;20030;-66
2022/12/25 05:16:29;;;;;;;24.75;8.40;;;;;;;12.22;76.60;100406.13;10427996;28;20053;-65
2022/12/25 05:21:31;;;;;;;18.45;8.05;;;;;;;12.21;76.58;100405.31;10427812;28;20060;-66
2022/12/25 05:26:32;;;;;;;26.55;8.88;;;;;;;12.19;76.71;100409.22;10431373;28;20041;-66
2022/12/25 05:31:33;;;;;;;27.75;8.88;;;;;;;12.18;77.02;100396.75;10430650;28;20041;-64
2022/12/25 05:36:35;;;;;;;20.85;8.93;;;;;;;12.17;76.65;100400.47;10416889;28;20141;-65
2022/12/25 05:41:36;;;;;;;21.88;8.25;;;;;;;12.19;76.83;100401.13;10433877;28;20137;-64
2022/12/25 05:46:38;;;;;;;18.63;7.53;;;;;;;12.18;76.65;100407.53;10437158;28;20057;-66
2022/12/25 05:51:39;;;;;;;19.48;9.18;;;;;;;12.09;76.80;100393.31;10439537;28;20042;-64
2022/12/25 05:56:41;;;;;;;17.10;8.77;;;;;;;12.10;76.73;100382.34;10442546;28;20034;-66
2022/12/25 06:01:42;;;;;;;20.13;7.15;;;;;;;12.00;77.09;100384.47;10439999;28;20040;-66
2022/12/25 06:06:44;;;;;;;18.08;6.93;;;;;;;12.01;76.94;100378.06;10436867;28;20062;-66
2022/12/25 06:11:45;;;;;;;23.17;8.10;;;;;;;12.02;77.12;100376.19;10438451;28;20042;-66
2022/12/25 06:16:51;;;;;;;18.23;7.10;;;;;;;12.01;77.05;100382.63;10441729;28;20040;-64
2022/12/25 06:21:53;;;;;;;17.80;6.95;;;;;;;11.99;76.99;100377.41;10434433;28;20034;-66
2022/12/25 06:26:55;;;;;;;14.90;6.45;;;;;;;11.95;76.82;100373.41;10442722;28;20029;-67
2022/12/25 06:31:57;;;;;;;16.65;6.35;;;;;;;11.95;76.49;100362.66;10441337;28;20049;-67
2022/12/25 06:36:59;;;;;;;19.00;6.07;;;;;;;11.93;76.93;100350.34;10440911;28;20067;-66
2022/12/25 06:42:00;;;;;;;21.58;7.47;;;;;;;11.93;76.99;100351.22;10436119;28;20046;-64
2022/12/25 06:47:01;;;;;;;22.98;6.25;;;;;;;11.89;76.58;100353.44;10433568;28;20042;-66
2022/12/25 06:52:03;;;;;;;12.98;5.15;;;;;;;11.93;76.82;100355.75;10436879;28;20030;-66
2022/12/25 06:57:04;;;;;;;15.80;5.68;;;;;;;11.95;77.03;100362.66;10437186;28;20295;-64
2022/12/25 07:02:17;;;;;;;11.35;4.93;;;;;;;11.96;76.98;100368.88;10440469;28;20088;-63
2022/12/25 07:07:20;;;;;;;15.07;5.25;;;;;;;11.93;76.79;100358.44;10421533;28;20061;-65
2022/12/25 07:12:22;;;;;;;16.83;5.05;;;;;;;11.90;77.08;100367.75;10436448;28;20041;-64
2022/12/25 07:17:24;;;;;;;18.38;6.03;;;;;;;11.91;76.75;100364.03;10417312;28;20025;-64
2022/12/25 07:22:27;;;;;;;14.93;4.60;;;;;;;11.93;77.16;100355.75;10449311;23;20052;-85
2022/12/25 07:27:29;;;;;;;14.70;4.75;;;;;;;11.96;77.18;100358.91;10428396;28;20048;-86
2022/12/25 07:32:31;;;;;;;12.68;4.78;;;;;;;12.01;76.76;100353.81;10414375;28;20103;-86
2022/12/25 07:37:32;;;;;;;16.02;4.65;;;;;;;12.04;77.08;100349.91;10417653;28;20057;-85
2022/12/25 07:42:34;;;;;;;17.35;5.68;;;;;;;12.04;77.00;100339.13;10432306;28;20061;-86
2022/12/25 07:47:35;;;;;;;15.93;4.40;;;;;;;12.05;76.65;100347.03;10417424;28;20474;-86
2022/12/25 07:52:40;;;;;;;10.93;4.55;;;;;;;11.99;77.04;100349.66;10414081;28;20128;-86
2022/12/25 07:57:44;;;;;;;10.60;4.18;;;;;;;12.00;76.50;100349.44;10417253;28;20050;-86
2022/12/25 08:02:48;;;;;;;10.45;4.00;;;;;;;11.97;76.59;100357.91;10427098;28;20053;-87
2022/12/25 08:07:52;;;;;;;14.48;3.92;;;;;;;11.92;76.48;100363.00;10414412;28;20051;-87
2022/12/25 08:12:58;;;;;;;13.70;4.45;;;;;;;11.96;77.04;100342.75;10425758;28;20052;-88
2022/12/25 08:17:59;;;;;;;8.52;3.83;;;;;;;12.06;76.70;100321.75;10427768;28;20675;-86
2022/12/25 08:23:03;;;;;;;6.40;4.47;;;;;;;12.13;76.93;100296.78;10410847;28;20049;-86
2022/12/25 08:28:04;;;;;;;14.63;4.53;;;;;;;12.17;76.71;100304.28;10418655;28;20060;-86
2022/12/25 08:33:06;;;;;;;12.32;4.28;;;;;;;12.28;77.11;100293.03;10410946;28;20130;-87
2022/12/25 08:38:07;;;;;;;13.63;4.55;;;;;;;12.37;76.95;100312.63;10405077;28;20061;-85
2022/12/25 08:43:09;;;;;;;16.60;4.13;;;;;;;12.44;76.44;100312.69;10429941;28;20053;-87
2022/12/25 08:48:10;;;;;;;8.40;3.45;;;;;;;12.27;76.81;100317.47;10435308;28;20054;-86
2022/12/25 08:53:12;;;;;;;8.00;3.53;;;;;;;12.30;76.64;100287.44;10406902;28;20529;-86
2022/12/25 08:58:15;;;;;;;7.75;3.45;;;;;;;12.38;76.38;100276.56;10421399;28;20056;-87
2022/12/25 09:03:16;;;;;;;8.65;3.83;;;;;;;12.39;76.13;100313.25;10424452;28;20106;-86
2022/12/25 09:08:19;;;;;;;12.05;3.97;;;;;;;12.35;76.39;100319.22;10410550;28;20044;-86
2022/12/25 09:13:20;;;;;;;15.18;6.43;;;;;;;12.41;76.37;100331.97;10412082;28;20056;-86
2022/12/25 09:18:22;;;;;;;14.65;4.40;;;;;;;12.40;76.51;100330.28;10417888;28;20041;-90
2022/12/25 09:23:26;;;;;;;7.55;2.80;;;;;;;12.49;76.00;100329.97;10448650;28;20056;-88
2022/12/25 09:28:29;;;;;;;9.43;3.35;;;;;;;12.50;76.33;100331.66;10445555;28;20056;-88
2022/12/25 09:33:31;;;;;;;9.07;3.40;;;;;;;12.57;76.02;100317.41;10432277;28;20442;-88
2022/12/25 09:38:33;;;;;;;7.57;3.33;;;;;;;12.62;76.12;100318.53;10435129;28;20103;-88
2022/12/25 09:43:41;;;;;;;9.40;3.53;;;;;;;12.60;76.01;100306.22;10417196;28;20053;-88
2022/12/25 09:48:46;;;;;;;;;;;;;;;12.62;76.32;100307.72;10421498;28;20049;-87
2022/12/25 09:53:57;;;;;;;6.03;2.95;;;;;;;12.67;75.58;100294.50;10414991;28;19928;-88
2022/12/25 09:58:59;;;;;;;9.63;3.63;;;;;;;12.71;76.19;100300.34;10428607;28;20773;-88
2022/12/25 10:04:49;;;;;;;9.20;3.40;;;;;;;12.69;75.69;100286.22;10427559;28;20056;-86
2022/12/25 10:10:35;;;;;;;7.93;3.37;;;;;;;12.67;76.28;100272.09;10410859;28;20053;-85
2022/12/25 10:16:14;;;;;;;9.20;3.63;;;;;;;12.76;76.02;100237.75;10364425;28;20131;-85
2022/12/25 10:21:17;;;;;;;7.78;3.42;;;;;;;12.84;75.69;100229.53;10404144;28;20052;-85
2022/12/25 10:26:21;;;;;;;9.05;3.28;;;;;;;12.92;75.94;100223.16;10353995;28;20037;-86
2022/12/25 10:31:26;;;;;;;10.38;3.35;;;;;;;12.99;75.59;100240.22;10357521;28;20136;-86
2022/12/25 10:36:29;;;;;;;8.75;3.42;;;;;;;13.00;75.80;100231.94;10356394;28;20050;-86
2022/12/25 10:41:52;;;;;;;6.72;3.47;;;;;;;13.09;75.18;100232.63;10353329;28;20137;-86
2022/12/25 10:46:56;;;;;;;12.40;4.43;;;;;;;13.08;75.51;100226.41;10352815;28;20054;-86
2022/12/25 10:51:59;;;;;;;9.32;4.10;;;;;;;13.36;75.46;100211.28;10354535;28;20058;-86
2022/12/25 10:57:15;;;;;;;7.18;3.25;;;;;;;13.26;75.50;100231.31;10357569;28;20092;-86
2022/12/25 11:02:23;;;;;;;7.80;3.72;;;;;;;13.10;75.45;100229.75;10429159;23;20406;-87
2022/12/25 11:07:26;;;;;;;5.88;2.92;;;;;;;13.24;75.05;100217.19;10383749;28;20057;-86
2022/12/25 11:12:31;;;;;;;7.18;4.50;;;;;;;13.26;75.01;100212.41;10379612;28;20057;-87
2022/12/25 11:17:34;;;;;;;10.02;3.88;;;;;;;13.19;75.21;100205.28;10405053;28;20484;-87
2022/12/25 11:22:36;;;;;;;6.32;4.05;;;;;;;13.35;75.00;100201.50;10372704;28;20041;-86
2022/12/25 11:27:37;;;;;;;13.95;3.78;;;;;;;13.52;74.35;100188.53;10384922;28;20298;-87
2022/12/25 11:32:51;;;;;;;6.35;3.13;;;;;;;13.61;74.37;100188.16;10366472;28;20091;-86
2022/12/25 11:37:52;;;;;;;6.70;3.00;;;;;;;13.57;74.49;100178.78;10372814;28;20551;-85
2022/12/25 11:43:20;;;;;;;8.65;3.78;;;;;;;13.61;74.28;100185.47;10377266;28;20057;-86
2022/12/25 11:48:31;;;;;;;7.30;3.92;;;;;;;13.62;74.05;100192.50;10351149;28;20509;-87
2022/12/25 11:53:48;;;;;;;9.02;4.88;;;;;;;13.73;73.91;100153.31;10333019;28;20042;-86
2022/12/25 11:59:16;;;;;;;7.22;4.43;;;;;;;13.71;73.87;100155.38;10336157;28;20057;-86
2022/12/25 12:04:51;;;;;;;9.13;3.67;;;;;;;13.75;73.77;100140.44;10346498;28;20058;-86
2022/12/25 12:10:20;;;;;;;10.02;3.72;;;;;;;13.64;74.63;100112.09;10319688;28;20109;-86
2022/12/25 12:15:42;;;;;;;4.65;2.75;;;;;;;13.75;74.56;100099.91;10333766;28;20073;-86
2022/12/25 12:20:45;;;;;;;10.32;3.25;;;;;;;13.86;74.46;100058.78;10320917;28;20050;-86
2022/12/25 12:25:47;;;;;;;6.10;2.47;;;;;;;13.79;74.50;100084.13;10350692;28;20057;-86
2022/12/25 12:31:15;;;;;;;6.95;3.15;;;;;;;13.69;74.64;100098.03;10317997;28;20124;-86
2022/12/25 12:36:21;;;;;;;8.02;3.65;;;;;;;13.60;74.70;100102.75;10320741;28;20050;-86
2022/12/25 12:41:46;;;;;;;12.63;3.50;;;;;;;13.67;74.07;100086.59;10326538;28;20511;-85
2022/12/25 12:46:56;;;;;;;5.70;2.70;;;;;;;13.86;73.44;100082.25;10346186;28;20050;-85
2022/12/25 12:52:23;;;;;;;5.95;2.92;;;;;;;13.91;73.32;100087.88;10335187;28;20054;-85
2022/12/25 12:57:28;;;;;;;5.97;3.20;;;;;;;13.88;73.45;100078.34;10347023;28;20042;-86
2022/12/25 13:02:42;;;;;;;6.88;3.28;;;;;;;13.93;73.28;100077.72;10333807;28;20058;-85
2022/12/25 13:07:52;;;;;;;4.85;3.38;;;;;;;13.99;73.23;100068.78;10329970;28;20057;-85
2022/12/25 13:12:59;;;;;;;7.63;3.65;;;;;;;13.96;73.62;100060.25;10331593;28;20453;-86
2022/12/25 13:18:05;;;;;;;8.73;3.33;;;;;;;13.93;73.28;100069.59;10329414;28;20054;-85
2022/12/25 13:23:34;;;;;;;9.20;4.13;;;;;;;13.82;73.38;100076.44;10329666;28;20061;-85
2022/12/25 13:28:36;;;;;;;7.07;4.03;;;;;;;13.84;73.13;100074.38;10315636;28;20523;-85
2022/12/25 13:33:39;;;;;;;8.63;3.83;;;;;;;13.84;73.09;100078.94;10337599;28;20053;-86
2022/12/25 13:38:45;;;;;;;6.30;3.33;;;;;;;13.87;73.07;100062.31;10351462;28;20046;-85
2022/12/25 13:43:48;;;;;;;6.80;2.70;;;;;;;13.85;73.07;100059.81;10336958;28;20526;-85
2022/12/25 13:48:59;;;;;;;6.97;2.78;;;;;;;13.83;73.00;100051.09;10340534;28;20100;-85
2022/12/25 13:54:05;;;;;;;7.28;2.97;;;;;;;13.77;72.90;100037.56;10336799;28;20442;-85
2022/12/25 13:59:15;;;;;;;6.32;3.28;;;;;;;13.83;72.96;100044.84;10324330;28;20050;-85
2022/12/25 14:04:22;;;;;;;5.20;3.00;;;;;;;13.80;72.74;100059.63;10352010;28;20048;-87
2022/12/25 14:09:24;;;;;;;7.13;3.38;;;;;;;13.78;72.73;100056.25;10321495;28;20148;-86
2022/12/25 14:14:26;;;;;;;8.00;4.00;;;;;;;13.76;72.40;100047.53;10326510;28;20081;-85
2022/12/25 14:19:33;;;;;;;12.48;5.55;;;;;;;13.71;72.75;100046.50;10336675;28;20053;-86
2022/12/25 14:24:34;;;;;;;14.03;5.37;;;;;;;13.63;73.01;100061.84;10341629;28;20057;-86
2022/12/25 14:29:39;;;;;;;13.23;6.13;;;;;;;13.53;73.28;100063.28;10346287;28;20054;-86
2022/12/25 14:34:42;;;;;;;9.75;5.20;;;;;;;13.51;73.36;100052.66;10349617;28;20940;-86
2022/12/25 14:39:56;;;;;;;11.43;5.13;;;;;;;13.45;73.00;100062.41;10343551;28;20116;-86
2022/12/25 14:45:25;;;;;;;10.90;5.05;;;;;;;13.29;73.76;100060.88;10347390;28;20141;-86
2022/12/25 14:50:30;;;;;;;10.40;5.75;;;;;;;13.38;73.63;100060.72;10336731;28;20062;-86
2022/12/25 14:55:36;;;;;;;12.43;5.88;;;;;;;13.40;73.19;100061.34;10323663;28;20046;-86
2022/12/25 15:00:38;;;;;;;13.25;5.57;;;;;;;13.45;73.07;100054.31;10326456;28;20502;-86
2022/12/25 15:05:40;;;;;;;12.52;5.63;;;;;;;13.45;73.09;100053.47;10326791;28;20448;-85
2022/12/25 15:10:41;;;;;;;10.18;6.35;;;;;;;13.43;73.03;100061.78;10352487;28;20122;-85
2022/12/25 15:16:13;;;;;;;10.50;6.38;;;;;;;13.36;72.81;100047.41;10344329;28;20042;-85
2022/12/25 15:21:20;;;;;;;13.80;6.63;;;;;;;13.36;72.81;100043.88;10331515;28;20081;-86
2022/12/25 15:26:22;;;;;;;;;;;;;;;13.30;73.58;100061.72;10335194;28;20054;-86
2022/12/25 15:31:32;;;;;;;14.57;8.40;;;;;;;13.19;73.46;100060.41;10345257;28;19921;-87
2022/12/25 15:36:34;;;;;;;13.48;7.28;;;;;;;13.15;73.08;100051.03;10356001;28;20054;-86
2022/12/25 15:46:57;;;;;;;11.93;6.82;;;;;;;13.05;73.08;100037.06;10333456;28;20065;-85
2022/12/25 15:52:03;;;;;;;12.85;8.32;;;;;;;13.01;73.19;100046.59;10318468;28;20081;-86
2022/12/25 15:57:13;;;;;;;20.83;8.40;;;;;;;12.98;73.49;100058.63;10325123;28;20061;-86
2022/12/25 16:02:17;;;;;;;20.40;10.00;;;;;;;12.88;73.58;100056.28;10319197;28;20089;-86
2022/12/25 16:07:22;;;;;;;12.27;7.20;;;;;;;12.87;73.62;100051.94;10359775;28;20115;-88
2022/12/25 16:12:24;;;;;;;16.42;9.25;;;;;;;12.84;73.46;100046.09;10351060;28;20069;-88
2022/12/25 16:17:25;;;;;;;18.10;8.73;;;;;;;12.78;73.36;100049.59;10334128;28;20082;-90
2022/12/25 16:22:27;;;;;;;27.38;13.75;;;;;;;12.68;73.72;100034.59;10346781;28;20082;-89
2022/12/25 16:27:29;;;;;;;21.88;11.43;;;;;;;12.59;73.57;100037.63;10333490;28;20101;-89
2022/12/25 16:32:30;;;;;;;16.67;10.88;;;;;;;12.53;73.84;100033.03;10325733;28;20081;-89
2022/12/25 16:37:33;;;;;;;16.73;9.27;;;;;;;12.46;73.48;100014.94;10323121;28;20531;-90
2022/12/25 16:42:36;;;;;;;20.60;9.88;;;;;;;12.39;73.92;100000.56;10331504;28;20114;-89
2022/12/25 16:47:37;;;;;;;17.10;9.68;;;;;;;12.32;74.07;100018.53;10327841;28;20049;-89
2022/12/25 16:52:39;;;;;;;11.88;8.38;;;;;;;12.17;74.00;100042.91;10365217;28;20054;-89
2022/12/25 16:57:40;;;;;;;12.80;8.00;;;;;;;12.15;74.28;100039.56;10342249;28;20049;-89
2022/12/25 17:02:42;;;;;;;15.15;8.80;;;;;;;12.20;74.05;100055.97;10322129;28;20050;-90
2022/12/25 17:07:45;;;;;;;19.60;10.25;;;;;;;12.13;74.13;100059.66;10344481;28;20069;-89
2022/12/25 17:12:47;;;;;;;14.23;10.05;;;;;;;12.09;73.97;100070.00;10326765;28;20082;-89
2022/12/25 17:17:48;;;;;;;17.50;10.43;;;;;;;12.05;74.06;100061.44;10340919;28;20053;-90
2022/12/25 17:22:50;;;;;;;20.95;11.45;;;;;;;12.01;74.45;100060.16;10329388;28;20066;-89
2022/12/25 17:27:52;;;;;;;20.17;12.57;;;;;;;11.97;74.31;100066.97;10340089;28;20042;-89
2022/12/25 17:32:54;;;;;;;37.72;20.08;;;;;;;11.84;74.60;100056.03;10355411;28;20520;-90
2022/12/25 17:37:55;;;;;;;33.15;17.98;;;;;;;11.88;74.65;100041.97;10362644;28;20391;-90
2022/12/25 17:42:57;;;;;;;23.67;15.52;;;;;;;11.88;74.19;100033.06;10364088;28;20050;-90
2022/12/25 17:47:58;;;;;;;26.75;14.77;;;;;;;11.71;75.04;100036.00;10336054;28;20433;-90
2022/12/25 17:53:01;;;;;;;23.52;11.82;;;;;;;11.71;75.00;100032.50;10343667;28;20054;-90
2022/12/25 17:58:04;;;;;;;18.00;10.07;;;;;;;11.82;75.11;100014.97;10333458;28;20038;-90
2022/12/25 18:03:07;;;;;;;20.17;11.57;;;;;;;11.90;74.73;100017.56;10363331;28;20062;-90
2022/12/25 18:08:13;;;;;;;17.00;10.45;;;;;;;11.84;74.82;100038.00;10353769;28;20065;-89
2022/12/25 18:13:14;;;;;;;22.27;11.60;;;;;;;11.87;75.36;100045.72;10330815;28;20060;-89
2022/12/25 18:18:16;;;;;;;17.95;11.68;;;;;;;11.96;74.70;100024.06;10335549;28;20142;-89
2022/12/25 18:23:19;;;;;;;27.65;16.42;;;;;;;11.98;74.92;100020.13;10353088;28;20062;-89
2022/12/25 18:28:20;;;;;;;23.02;13.73;;;;;;;11.98;74.70;100019.31;10340756;28;20057;-90
2022/12/25 18:33:22;;;;;;;24.52;13.27;;;;;;;12.00;74.46;100010.00;10331128;28;20109;-89
2022/12/25 18:38:23;;;;;;;21.52;11.80;;;;;;;11.99;74.56;100016.44;10334840;28;20619;-89
2022/12/25 18:43:25;;;;;;;20.25;12.60;;;;;;;12.01;75.08;100005.47;10336553;28;20054;-89
2022/12/25 18:48:46;;;;;;;20.63;11.57;;;;;;;12.01;74.84;100008.16;10345578;28;20054;-90
2022/12/25 18:53:56;;;;;;;22.33;12.40;;;;;;;12.04;74.77;100010.44;10333557;28;20054;-90
2022/12/25 18:58:59;;;;;;;23.60;11.75;;;;;;;12.06;75.03;100013.78;10333684;28;20045;-90
2022/12/25 19:04:01;;;;;;;21.90;13.35;;;;;;;12.08;74.93;100006.34;10330979;28;20080;-89
2022/12/25 19:09:09;;;;;;;21.90;11.48;;;;;;;12.07;75.52;99989.34;10332853;28;20089;-90
2022/12/25 19:14:11;;;;;;;16.55;9.82;;;;;;;12.10;76.04;99997.06;10347936;28;20045;-90
2022/12/25 19:19:13;;;;;;;16.55;9.65;;;;;;;12.16;75.92;99992.72;10337174;28;20455;-90
2022/12/25 19:24:15;;;;;;;15.15;8.55;;;;;;;12.25;75.68;99999.63;10372607;28;20194;-91
2022/12/25 19:29:16;;;;;;;17.40;9.82;;;;;;;12.34;75.89;99996.78;10361564;28;20617;-89
2022/12/25 19:34:18;;;;;;;18.33;8.98;;;;;;;12.42;75.85;99986.72;10334703;28;20050;-89
2022/12/25 19:39:19;;;;;;;13.82;7.43;;;;;;;12.45;75.96;100007.03;10348535;28;20054;-91
2022/12/25 19:44:21;;;;;;;14.02;7.10;;;;;;;12.44;76.25;100024.22;10351327;28;20501;-91
2022/12/25 19:49:22;;;;;;;12.93;6.80;;;;;;;12.53;76.55;100011.47;10366206;28;20037;-90
2022/12/25 19:54:24;;;;;;;14.18;6.93;;;;;;;12.58;76.47;99984.72;10349092;28;20102;-90
2022/12/25 19:59:26;;;;;;;13.80;7.75;;;;;;;12.62;76.29;99986.00;10354006;28;20081;-91
2022/12/25 20:04:27;;;;;;;10.77;6.90;;;;;;;12.62;76.62;100003.00;10360043;28;20050;-89
2022/12/25 20:09:30;;;;;;;15.95;8.60;;;;;;;12.69;76.21;99981.47;10332011;28;20054;-90
2022/12/25 20:14:31;;;;;;;14.38;8.30;;;;;;;12.71;76.38;99984.81;10332916;28;20073;-89
2022/12/25 20:19:33;;;;;;;13.23;8.27;;;;;;;12.73;76.03;99982.75;10329246;28;20077;-88
2022/12/25 20:24:35;;;;;;;15.98;7.47;;;;;;;12.69;76.33;100009.25;10349523;28;20042;-89
2022/12/25 20:29:36;;;;;;;11.32;6.75;;;;;;;12.67;76.21;99986.22;10357419;28;20050;-89
2022/12/25 20:34:38;;;;;;;9.63;6.43;;;;;;;12.71;76.07;99990.19;10347787;28;20064;-89
2022/12/25 20:39:39;;;;;;;11.43;7.20;;;;;;;12.73;76.16;100004.31;10362051;28;20045;-89
2022/12/25 20:44:41;;;;;;;10.88;6.70;;;;;;;12.69;75.84;99995.78;10330936;28;20088;-89
2022/12/25 20:49:46;;;;;;;7.90;6.38;;;;;;;12.70;76.25;99996.63;10349733;28;20060;-90
2022/12/25 20:54:48;;;;;;;8.90;6.13;;;;;;;12.68;76.04;100004.09;10336619;28;20141;-90
2022/12/25 20:59:50;;;;;;;10.50;6.00;;;;;;;12.64;75.88;100011.75;10351511;28;20050;-90
2022/12/25 21:04:54;;;;;;;10.60;5.88;;;;;;;12.66;76.13;100016.94;10349460;28;20053;-90
2022/12/25 21:09:56;;;;;;;8.07;5.82;;;;;;;12.65;76.17;100005.31;10357871;28;20038;-90
2022/12/25 21:14:58;;;;;;;11.70;5.03;;;;;;;12.66;75.78;100019.63;10351338;28;20056;-89
2022/12/25 21:19:59;;;;;;;10.68;5.97;;;;;;;12.59;75.69;100021.44;10364944;28;20064;-89
2022/12/25 21:25:01;;;;;;;11.15;5.05;;;;;;;12.63;75.78;100033.50;10332900;28;20053;-89
2022/12/25 21:30:03;;;;;;;7.65;4.57;;;;;;;12.63;75.64;100038.91;10347426;28;20062;-89
2022/12/25 21:35:16;;;;;;;8.00;4.85;;;;;;;12.64;75.92;100032.50;10347518;28;20050;-89
2022/12/25 21:40:17;;;;;;;7.22;4.22;;;;;;;12.69;75.62;100035.41;10360523;28;20053;-89
2022/12/25 21:45:19;;;;;;;10.35;5.18;;;;;;;12.72;75.81;100053.03;10327473;28;20049;-89
2022/12/25 21:55:42;;;;;;;7.05;4.03;;;;;;;12.78;75.23;100055.81;10355459;28;20400;-90
2022/12/25 22:00:43;;;;;;;5.10;3.58;;;;;;;12.77;75.34;100045.22;10346758;28;20416;-90
2022/12/25 22:14:48;;;;;;;6.50;3.42;;;;;;;12.83;74.83;100055.19;10340446;28;20046;-89
2022/12/25 22:27:10;;;;;;;6.40;3.50;;;;;;;13.03;74.44;100050.78;10455434;23;19924;-91
2022/12/25 22:32:13;;;;;;;7.32;2.78;;;;;;;13.07;73.55;100049.34;10378552;28;20109;-89
2022/12/25 22:37:17;;;;;;;3.72;2.70;;;;;;;13.12;73.60;100054.13;10381535;28;20044;-90
2022/12/25 22:42:18;;;;;;;7.00;3.13;;;;;;;13.16;73.17;100050.00;10361654;28;20138;-90
2022/12/25 22:47:21;;;;;;;4.38;2.67;;;;;;;13.19;73.30;100043.34;10367733;28;20118;-90
2022/12/25 22:57:42;;;;;;;5.82;2.78;;;;;;;13.12;73.19;100053.31;10683756;22;20071;-90
2022/12/25 23:02:46;;;;;;;7.20;3.30;;;;;;;13.09;73.06;100052.66;10425689;28;20117;-90
2022/12/25 23:07:53;;;;;;;5.80;2.65;;;;;;;13.11;73.05;100063.25;10433053;28;20026;-90
2022/12/25 23:34:23;;;;;;;4.47;2.83;;;;;;;13.09;72.71;100062.59;10405389;23;20044;-90
2022/12/25 23:39:26;;;;;;;3.55;2.15;;;;;;;13.02;72.44;100069.84;10377763;28;20030;-90
2022/12/25 23:49:50;;;;;;;4.70;2.40;;;;;;;13.03;72.65;100055.31;10435627;28;20056;-91
2022/12/25 23:54:54;;;;;;;3.67;2.33;;;;;;;13.09;72.18;100051.81;10401839;28;20050;-91
2022/12/25 23:59:56;;;;;;;3.95;2.67;;;;;;;13.11;71.94;100071.34;10401613;28;20048;-91
